Time;durP1;ratioP1;P1;durP2;ratioP2;P2;SDS_P1;SDS_P2;PMS_P1;PMS_P2;Temp;Humidity;BMP_temperature;BMP_pressure;BME280_temperature;BME280_humidity;BME280_pressure;Samples;Min_cycle;Max_cycle;Signal;HPM_P1;HPM_P2
2023/10/02 00:01:47;;;;;;;36.22;12.82;;;14.60;99.90;;;;;;5021855;28;20068;-60
2023/10/02 00:04:19;;;;;;;36.20;11.77;;;14.50;99.90;;;;;;5028318;28;20484;-60
2023/10/02 00:06:46;;;;;;;26.60;11.77;;;14.50;99.90;;;;;;5020811;28;20492;-60
2023/10/02 00:09:13;;;;;;;26.70;11.00;;;14.40;99.90;;;;;;5027171;28;20029;-61
2023/10/02 00:11:39;;;;;;;26.88;12.10;;;14.40;99.90;;;;;;5017929;28;20034;-61
2023/10/02 00:14:18;;;;;;;31.70;11.88;;;14.40;99.90;;;;;;5026392;28;20032;-61
2023/10/02 00:17:00;;;;;;;28.02;12.07;;;14.40;99.90;;;;;;5019487;28;20021;-62
2023/10/02 00:19:27;;;;;;;29.27;11.27;;;14.40;99.90;;;;;;5031577;28;20072;-61
2023/10/02 00:22:08;;;;;;;39.97;13.38;;;14.40;99.90;;;;;;5027979;28;20024;-61
2023/10/02 00:24:39;;;;;;;40.15;12.68;;;14.40;99.90;;;;;;5023906;28;20049;-60
2023/10/02 00:27:09;;;;;;;37.28;12.98;;;14.40;99.90;;;;;;5031163;28;20034;-61
2023/10/02 00:29:51;;;;;;;37.05;11.88;;;14.40;99.90;;;;;;5033207;28;20026;-61
2023/10/02 00:32:19;;;;;;;40.72;11.73;;;14.40;99.90;;;;;;5028245;28;20390;-60
2023/10/02 00:34:45;;;;;;;32.45;12.18;;;14.30;99.90;;;;;;5026685;28;20198;-61
2023/10/02 00:37:15;;;;;;;37.65;11.98;;;14.40;99.90;;;;;;5028029;28;20044;-61
2023/10/02 00:39:41;;;;;;;36.00;12.07;;;14.30;99.90;;;;;;5031748;28;20029;-61
2023/10/02 00:44:58;;;;;;;36.00;11.90;;;14.30;99.90;;;;;;5030906;28;20065;-61
2023/10/02 00:47:42;;;;;;;33.55;11.63;;;14.30;99.90;;;;;;5028320;28;20021;-61
2023/10/02 00:50:10;;;;;;;;;;;14.30;99.90;;;;;;5026454;28;20021;-60
2023/10/02 00:52:40;;;;;;;40.97;12.63;;;14.20;99.90;;;;;;5024848;28;19919;-61
2023/10/02 00:55:14;;;;;;;29.73;10.85;;;14.20;99.90;;;;;;5027380;28;20081;-60
2023/10/02 00:57:41;;;;;;;32.13;12.20;;;14.20;99.90;;;;;;5024741;28;20088;-61
2023/10/02 01:00:20;;;;;;;32.58;12.27;;;14.20;99.90;;;;;;5027161;28;20105;-60
2023/10/02 01:02:51;;;;;;;33.97;12.50;;;14.20;99.90;;;;;;5032890;28;20128;-61
2023/10/02 01:05:30;;;;;;;30.33;10.77;;;14.20;99.90;;;;;;5028292;28;20077;-61
2023/10/02 01:07:57;;;;;;;35.13;12.63;;;14.20;99.90;;;;;;5026072;28;20036;-61
2023/10/02 01:10:29;;;;;;;31.50;11.73;;;14.30;99.90;;;;;;5032061;28;20111;-61
2023/10/02 01:13:01;;;;;;;30.88;10.73;;;14.30;99.90;;;;;;5031489;28;20037;-62
2023/10/02 01:15:28;;;;;;;38.78;12.90;;;14.30;99.90;;;;;;5026729;28;20029;-61
2023/10/02 01:18:18;;;;;;;34.97;12.82;;;14.20;99.90;;;;;;5029251;28;20072;-62
2023/10/02 01:20:47;;;;;;;30.23;12.07;;;14.30;99.90;;;;;;5030319;28;20380;-62
2023/10/02 01:23:16;;;;;;;26.02;12.15;;;14.20;99.90;;;;;;5031444;28;20547;-62
2023/10/02 01:25:47;;;;;;;35.50;12.77;;;14.20;99.90;;;;;;5030314;28;20041;-61
2023/10/02 01:28:15;;;;;;;34.08;12.52;;;14.10;99.90;;;;;;5022677;28;20112;-61
2023/10/02 01:30:42;;;;;;;24.83;10.65;;;14.20;99.90;;;;;;5028641;28;20392;-60
2023/10/02 01:35:47;;;;;;;32.45;11.52;;;14.10;99.90;;;;;;5031255;28;21788;-61
2023/10/02 01:38:29;;;;;;;29.75;11.77;;;14.00;99.90;;;;;;5033595;28;20009;-60
2023/10/02 01:41:03;;;;;;;27.38;11.85;;;14.00;99.90;;;;;;5032448;28;20029;-61
2023/10/02 01:43:39;;;;;;;28.75;11.98;;;13.90;99.90;;;;;;5021934;28;20034;-61
2023/10/02 01:46:05;;;;;;;30.15;12.50;;;13.90;99.90;;;;;;5024988;28;20056;-61
2023/10/02 01:48:44;;;;;;;33.38;12.30;;;13.90;99.90;;;;;;5020245;28;20602;-62
2023/10/02 01:51:20;;;;;;;27.02;10.10;;;13.90;99.90;;;;;;5026583;28;20025;-61
2023/10/02 01:53:56;;;;;;;29.63;11.50;;;13.90;99.90;;;;;;5027648;28;20504;-61
2023/10/02 01:56:29;;;;;;;32.80;11.95;;;13.90;99.90;;;;;;5028745;28;20380;-61
2023/10/02 01:59:08;;;;;;;34.97;13.40;;;13.90;99.90;;;;;;5031174;28;20022;-61
2023/10/02 02:01:46;;;;;;;27.02;11.93;;;13.90;99.90;;;;;;5024368;28;20079;-60
2023/10/02 02:04:14;;;;;;;30.70;12.38;;;13.90;99.90;;;;;;5029867;28;20017;-60
2023/10/02 02:06:51;;;;;;;32.42;12.32;;;13.90;99.90;;;;;;5026810;28;20403;-59
2023/10/02 02:09:23;;;;;;;31.48;12.35;;;13.90;99.90;;;;;;5032549;28;20064;-61
2023/10/02 02:12:05;;;;;;;31.85;12.57;;;14.00;99.90;;;;;;5032167;28;20044;-60
2023/10/02 02:14:40;;;;;;;31.60;12.68;;;13.90;99.90;;;;;;5033188;28;20025;-61
2023/10/02 02:17:10;;;;;;;32.72;12.77;;;14.00;99.90;;;;;;5022204;28;20544;-60
2023/10/02 02:19:48;;;;;;;33.95;14.20;;;13.90;99.90;;;;;;5024829;28;20048;-61
2023/10/02 02:22:18;;;;;;;30.15;12.27;;;13.90;99.90;;;;;;5029506;28;20027;-61
2023/10/02 02:24:47;;;;;;;36.88;14.20;;;13.90;99.90;;;;;;5027798;28;20048;-61
2023/10/02 02:27:19;;;;;;;32.10;12.80;;;13.90;99.90;;;;;;5024944;28;20021;-59
2023/10/02 02:29:46;;;;;;;29.83;12.27;;;13.90;99.90;;;;;;5027969;28;20033;-61
2023/10/02 02:32:12;;;;;;;33.03;12.70;;;13.90;99.90;;;;;;5020852;28;20025;-60
2023/10/02 02:34:38;;;;;;;30.13;12.07;;;13.90;99.90;;;;;;5019947;28;20491;-60
2023/10/02 02:37:06;;;;;;;31.75;12.88;;;13.80;99.90;;;;;;5023720;28;20049;-60
2023/10/02 02:39:37;;;;;;;33.78;12.57;;;13.90;99.90;;;;;;5027210;28;20071;-60
2023/10/02 02:42:09;;;;;;;26.77;11.68;;;13.80;99.90;;;;;;5032688;28;20048;-59
2023/10/02 02:44:55;;;;;;;35.00;12.65;;;13.80;99.90;;;;;;5028490;28;20025;-62
2023/10/02 02:47:24;;;;;;;25.13;10.23;;;13.70;99.90;;;;;;5020042;28;20034;-57
2023/10/02 02:49:52;;;;;;;33.13;12.45;;;13.70;99.90;;;;;;5027020;28;20105;-61
2023/10/02 02:52:24;;;;;;;34.05;13.52;;;13.70;99.90;;;;;;5031798;28;20026;-62
2023/10/02 02:54:58;;;;;;;29.88;11.98;;;13.60;99.90;;;;;;5029392;28;20561;-60
2023/10/02 02:57:29;;;;;;;35.05;12.63;;;13.70;99.90;;;;;;5024874;28;20431;-61
2023/10/02 03:02:47;;;;;;;31.30;12.05;;;13.70;99.90;;;;;;5024352;28;20033;-55
2023/10/02 03:05:20;;;;;;;31.10;11.85;;;13.60;99.90;;;;;;5034027;28;20104;-61
2023/10/02 03:07:48;;;;;;;32.50;12.65;;;13.60;99.90;;;;;;5017861;28;20037;-61
2023/10/02 03:10:16;;;;;;;33.58;12.90;;;13.70;99.90;;;;;;5027239;28;20537;-60
2023/10/02 03:12:48;;;;;;;32.15;13.23;;;13.60;99.90;;;;;;5030123;28;20396;-62
2023/10/02 03:15:45;;;;;;;26.48;12.80;;;13.60;99.90;;;;;;5027207;28;20028;-61
2023/10/02 03:18:22;;;;;;;33.78;13.40;;;13.60;99.90;;;;;;5024773;28;20037;-60
2023/10/02 03:20:52;;;;;;;38.00;13.77;;;13.60;99.90;;;;;;5028642;28;20034;-59
2023/10/02 03:23:18;;;;;;;37.40;13.82;;;13.60;99.90;;;;;;5031909;28;20063;-62
2023/10/02 03:25:48;;;;;;;36.75;13.43;;;13.60;99.90;;;;;;5026456;28;20404;-61
2023/10/02 03:28:32;;;;;;;38.42;13.88;;;13.60;99.90;;;;;;5023002;28;20032;-60
2023/10/02 03:31:00;;;;;;;43.80;13.63;;;13.60;99.90;;;;;;5031361;28;20045;-61
2023/10/02 03:33:31;;;;;;;38.63;14.30;;;13.60;99.90;;;;;;5030605;28;20021;-61
2023/10/02 03:36:09;;;;;;;36.30;13.95;;;13.60;99.90;;;;;;5026563;28;20450;-61
2023/10/02 03:38:41;;;;;;;32.22;13.18;;;13.60;99.90;;;;;;5024623;28;20476;-61
2023/10/02 03:41:11;;;;;;;30.38;12.80;;;13.60;99.90;;;;;;5027853;28;20021;-59
2023/10/02 03:43:43;;;;;;;31.48;13.98;;;13.50;99.90;;;;;;5025141;28;20017;-60
2023/10/02 03:46:44;;;;;;;32.20;13.68;;;13.50;99.90;;;;;;5027648;28;20033;-61
2023/10/02 03:49:06;;;;;;;42.90;13.27;;;13.50;99.90;;;;;;5028880;28;20096;-61
2023/10/02 03:51:41;;;;;;;37.03;13.63;;;13.50;99.90;;;;;;5024802;28;20022;-61
2023/10/02 03:54:18;;;;;;;38.50;13.63;;;13.40;99.90;;;;;;5025343;28;20028;-61
2023/10/02 03:56:48;;;;;;;36.83;13.38;;;13.40;99.90;;;;;;5028377;28;20017;-61
2023/10/02 03:59:26;;;;;;;42.35;14.55;;;13.50;99.90;;;;;;5020444;28;20022;-62
2023/10/02 04:02:24;;;;;;;35.28;13.20;;;13.40;99.90;;;;;;5027765;28;20026;-61
2023/10/02 04:04:44;;;;;;;38.75;13.27;;;13.40;99.90;;;;;;5028355;28;20032;-60
2023/10/02 04:07:11;;;;;;;41.17;14.45;;;13.50;99.90;;;;;;5032782;28;20021;-62
2023/10/02 04:09:37;;;;;;;30.38;13.35;;;13.50;99.90;;;;;;5023563;28;20022;-61
2023/10/02 04:12:06;;;;;;;38.67;13.90;;;13.40;99.90;;;;;;5025551;28;20443;-61
2023/10/02 04:14:33;;;;;;;41.13;13.75;;;13.50;99.90;;;;;;5025309;28;20045;-60
2023/10/02 04:19:48;;;;;;;41.40;14.65;;;13.40;99.90;;;;;;5020827;28;20059;-62
2023/10/02 04:22:19;;;;;;;35.35;13.55;;;13.40;99.90;;;;;;5026304;28;20029;-61
2023/10/02 04:24:51;;;;;;;31.60;12.00;;;13.40;99.90;;;;;;5024141;28;20790;-61
2023/10/02 04:32:48;;;;;;;32.85;13.00;;;13.50;99.90;;;;;;5025321;28;20026;-61
2023/10/02 04:37:59;;;;;;;26.40;12.00;;;13.40;99.90;;;;;;5026638;28;20041;-59
2023/10/02 04:40:44;;;;;;;33.38;12.80;;;13.40;99.90;;;;;;5026133;28;20022;-60
2023/10/02 04:43:19;;;;;;;37.03;13.40;;;13.30;99.90;;;;;;5026802;28;20037;-61
2023/10/02 04:46:02;;;;;;;34.97;13.05;;;13.30;99.90;;;;;;5028896;28;20159;-61
2023/10/02 04:48:39;;;;;;;29.38;11.57;;;13.30;99.90;;;;;;5022683;28;20033;-61
2023/10/02 04:51:11;;;;;;;33.08;13.50;;;13.30;99.90;;;;;;5025550;28;20033;-60
2023/10/02 04:53:37;;;;;;;36.92;13.55;;;13.30;99.90;;;;;;5021771;28;20483;-61
2023/10/02 04:56:36;;;;;;;34.15;13.32;;;13.30;99.90;;;;;;5021384;28;20041;-60
2023/10/02 04:58:57;;;;;;;33.53;12.93;;;13.30;99.90;;;;;;5025385;28;20075;-59
2023/10/02 05:01:24;;;;;;;39.50;14.23;;;13.20;99.90;;;;;;5024158;28;20391;-59
2023/10/02 05:03:51;;;;;;;34.25;12.60;;;13.20;99.90;;;;;;5018346;28;20436;-60
2023/10/02 05:06:39;;;;;;;37.67;13.27;;;13.20;99.90;;;;;;5030068;28;20517;-61
2023/10/02 05:11:45;;;;;;;35.78;12.77;;;13.20;99.90;;;;;;5030672;28;20025;-61
2023/10/02 05:14:14;;;;;;;30.63;12.13;;;13.20;99.90;;;;;;5023957;28;20037;-60
2023/10/02 05:16:42;;;;;;;33.47;12.65;;;13.20;99.90;;;;;;5032938;28;20078;-58
2023/10/02 05:19:09;;;;;;;33.83;13.35;;;13.20;99.90;;;;;;5023821;28;20492;-61
2023/10/02 05:21:50;;;;;;;34.67;13.23;;;13.20;99.90;;;;;;5030377;28;20283;-61
2023/10/02 05:24:18;;;;;;;35.97;13.90;;;13.20;99.90;;;;;;5030176;28;20423;-61
2023/10/02 05:26:46;;;;;;;27.85;12.73;;;13.20;99.90;;;;;;5030466;28;20025;-61
2023/10/02 05:29:17;;;;;;;31.63;12.88;;;13.20;99.90;;;;;;5031557;28;20120;-61
2023/10/02 05:31:43;;;;;;;35.10;14.15;;;13.20;99.90;;;;;;5031228;28;20032;-61
2023/10/02 05:34:13;;;;;;;31.85;13.25;;;13.30;99.90;;;;;;5029122;28;20072;-61
2023/10/02 05:37:03;;;;;;;37.85;13.75;;;13.20;99.90;;;;;;5026293;28;20022;-60
2023/10/02 05:39:39;;;;;;;29.33;13.10;;;13.20;99.90;;;;;;5026317;28;20030;-61
2023/10/02 05:42:13;;;;;;;33.03;13.00;;;13.20;99.90;;;;;;5021809;28;20041;-60
2023/10/02 05:44:39;;;;;;;29.40;12.77;;;13.30;99.90;;;;;;5026857;28;20033;-60
2023/10/02 05:47:05;;;;;;;32.58;12.40;;;13.30;99.90;;;;;;5028217;28;20510;-61
2023/10/02 05:49:43;;;;;;;34.15;13.80;;;13.30;99.90;;;;;;5025417;28;20037;-61
2023/10/02 05:52:09;;;;;;;36.20;14.40;;;13.30;99.90;;;;;;5023115;28;20496;-60
2023/10/02 05:54:40;;;;;;;37.05;13.50;;;13.30;99.90;;;;;;5023613;28;20064;-59
2023/10/02 05:57:08;;;;;;;32.13;12.88;;;13.30;99.90;;;;;;5019925;28;20025;-60
2023/10/02 05:59:48;;;;;;;37.80;13.60;;;13.40;99.90;;;;;;5025392;28;20025;-61
2023/10/02 06:02:19;;;;;;;30.83;12.85;;;13.40;99.90;;;;;;5027850;28;20034;-60
2023/10/02 06:04:47;;;;;;;36.33;14.15;;;13.40;99.90;;;;;;5021453;28;20034;-60
2023/10/02 06:10:07;;;;;;;39.65;13.57;;;13.40;99.90;;;;;;5026868;28;20450;-60
2023/10/02 06:12:32;;;;;;;32.05;13.95;;;13.40;99.90;;;;;;5024781;28;20494;-60
2023/10/02 06:15:04;;;;;;;30.52;12.88;;;13.40;99.90;;;;;;5017073;28;20026;-58
2023/10/02 06:17:32;;;;;;;33.97;12.75;;;13.50;99.90;;;;;;5026969;28;20557;-60
2023/10/02 06:19:57;;;;;;;38.95;13.02;;;13.40;99.90;;;;;;5020612;28;20087;-59
2023/10/02 06:22:23;;;;;;;30.42;12.40;;;13.40;99.90;;;;;;5025309;28;20471;-60
2023/10/02 06:24:48;;;;;;;36.63;13.10;;;13.50;99.90;;;;;;5020093;28;20369;-60
2023/10/02 06:27:15;;;;;;;31.17;12.95;;;13.50;99.90;;;;;;5026930;28;20040;-61
2023/10/02 06:29:44;;;;;;;36.13;13.88;;;13.60;99.90;;;;;;5020542;28;20487;-61
2023/10/02 06:32:14;;;;;;;28.67;13.40;;;13.60;99.90;;;;;;5026506;28;20423;-60
2023/10/02 06:34:43;;;;;;;36.72;14.40;;;13.60;99.90;;;;;;5016467;28;20109;-60
2023/10/02 06:37:16;;;;;;;31.95;13.32;;;13.70;99.90;;;;;;5023357;28;20057;-60
2023/10/02 06:39:46;;;;;;;26.90;12.07;;;13.70;99.90;;;;;;5022863;28;20026;-61
2023/10/02 06:42:17;;;;;;;40.70;13.98;;;13.80;99.90;;;;;;5026112;28;20404;-61
2023/10/02 06:44:52;;;;;;;34.85;13.60;;;13.80;99.90;;;;;;5016501;28;20040;-61
2023/10/02 06:47:23;;;;;;;34.25;14.23;;;13.90;99.90;;;;;;5029718;28;20017;-62
2023/10/02 06:49:52;;;;;;;33.97;13.13;;;14.00;99.90;;;;;;5020334;28;20053;-60
2023/10/02 06:52:20;;;;;;;28.58;13.48;;;14.00;99.90;;;;;;5025895;28;20064;-61
2023/10/02 06:54:48;;;;;;;30.15;12.57;;;14.10;99.90;;;;;;5020637;28;20029;-60
2023/10/02 06:57:16;;;;;;;32.03;13.73;;;14.10;99.90;;;;;;5018632;28;20113;-61
2023/10/02 06:59:53;;;;;;;30.80;13.55;;;14.20;99.90;;;;;;5019950;28;20496;-59
2023/10/02 07:02:23;;;;;;;29.23;12.05;;;14.30;99.90;;;;;;5015891;28;20038;-61
2023/10/02 07:04:50;;;;;;;30.73;14.30;;;14.40;99.90;;;;;;5017591;28;20091;-60
2023/10/02 07:07:24;;;;;;;33.63;14.05;;;14.40;99.90;;;;;;5020298;28;20051;-61
2023/10/02 07:09:51;;;;;;;31.60;12.85;;;14.50;99.90;;;;;;5022116;28;20033;-60
2023/10/02 07:12:17;;;;;;;35.20;14.63;;;14.50;99.90;;;;;;5023930;28;20029;-58
2023/10/02 07:14:45;;;;;;;33.45;12.65;;;14.60;99.90;;;;;;5021181;28;20037;-61
2023/10/02 07:17:17;;;;;;;31.92;12.82;;;14.60;99.90;;;;;;5022784;28;20083;-60
2023/10/02 07:19:50;;;;;;;37.83;12.70;;;14.70;99.90;;;;;;5021984;28;20021;-61
2023/10/02 07:22:17;;;;;;;31.13;12.40;;;14.70;99.90;;;;;;5016775;28;20037;-60
2023/10/02 07:24:46;;;;;;;31.65;13.23;;;14.80;99.90;;;;;;5021827;28;20297;-60
2023/10/02 07:27:23;;;;;;;34.38;12.68;;;14.90;99.90;;;;;;5020089;28;20029;-60
2023/10/02 07:29:56;;;;;;;32.80;13.60;;;14.90;99.90;;;;;;5022035;28;20088;-61
2023/10/02 07:32:23;;;;;;;28.80;13.10;;;15.00;99.90;;;;;;5016542;28;20022;-60
2023/10/02 07:34:53;;;;;;;30.42;13.35;;;15.10;99.90;;;;;;5019843;28;20022;-59
2023/10/02 07:37:22;;;;;;;32.83;13.75;;;15.20;99.90;;;;;;5025822;28;20069;-60
2023/10/02 07:39:58;;;;;;;37.30;13.95;;;15.20;99.90;;;;;;5021710;28;20507;-59
2023/10/02 07:42:31;;;;;;;35.10;13.38;;;15.30;99.90;;;;;;5025481;28;20072;-60
2023/10/02 07:45:11;;;;;;;32.97;12.85;;;15.40;99.90;;;;;;5017874;28;20030;-62
2023/10/02 07:48:07;;;;;;;34.90;13.88;;;15.50;99.90;;;;;;5022010;28;20025;-60
2023/10/02 07:50:35;;;;;;;33.45;13.32;;;15.60;99.90;;;;;;5018408;28;20040;-61
2023/10/02 07:53:05;;;;;;;32.20;12.98;;;15.70;99.90;;;;;;5020014;28;20404;-58
2023/10/02 07:55:39;;;;;;;31.65;12.88;;;15.70;99.90;;;;;;5015152;28;20148;-59
2023/10/02 07:58:04;;;;;;;29.98;12.75;;;15.90;99.90;;;;;;5020988;28;20487;-60
2023/10/02 08:00:37;;;;;;;35.67;12.40;;;15.90;99.90;;;;;;5020013;28;20040;-61
2023/10/02 08:03:04;;;;;;;30.63;12.52;;;16.00;99.90;;;;;;5020954;28;20439;-60
2023/10/02 08:05:36;;;;;;;34.80;13.80;;;16.10;99.90;;;;;;5014778;28;20087;-61
2023/10/02 08:08:11;;;;;;;33.35;12.80;;;16.20;99.90;;;;;;5019967;28;20053;-59
2023/10/02 08:10:49;;;;;;;35.22;13.65;;;16.30;99.90;;;;;;5020010;28;20033;-58
2023/10/02 08:13:16;;;;;;;39.65;13.43;;;16.40;99.90;;;;;;5016831;28;20037;-59
2023/10/02 08:15:44;;;;;;;27.23;12.88;;;16.50;99.90;;;;;;5019766;28;20111;-59
2023/10/02 08:18:19;;;;;;;31.77;13.30;;;16.70;99.90;;;;;;5018426;28;20503;-59
2023/10/02 08:20:45;;;;;;;31.35;11.73;;;16.80;99.90;;;;;;5028750;28;20036;-60
2023/10/02 08:23:24;;;;;;;33.15;12.63;;;16.80;99.90;;;;;;5016305;28;20031;-60
2023/10/02 08:26:00;;;;;;;30.98;11.93;;;16.90;99.90;;;;;;5014259;28;20026;-61
2023/10/02 08:28:30;;;;;;;34.80;12.38;;;17.10;99.90;;;;;;5022101;28;20052;-61
2023/10/02 08:31:01;;;;;;;31.48;12.10;;;17.20;99.90;;;;;;5026578;28;20113;-61
2023/10/02 08:33:30;;;;;;;35.17;12.52;;;17.30;99.90;;;;;;5024305;28;21260;-61
2023/10/02 08:35:56;;;;;;;34.95;11.98;;;17.40;99.90;;;;;;5027588;28;20106;-60
2023/10/02 08:38:22;;;;;;;30.88;11.13;;;17.50;99.90;;;;;;5020400;28;20034;-58
2023/10/02 08:41:03;;;;;;;26.73;11.82;;;17.60;99.90;;;;;;5034504;28;20071;-61
2023/10/02 08:43:41;;;;;;;27.75;12.13;;;17.80;99.90;;;;;;5021906;28;20026;-61
2023/10/02 08:46:08;;;;;;;27.80;11.10;;;17.90;99.90;;;;;;5024576;28;20026;-55
2023/10/02 08:48:34;;;;;;;29.58;12.38;;;18.00;99.90;;;;;;5024468;28;20108;-61
2023/10/02 08:51:00;;;;;;;30.95;11.50;;;18.10;99.90;;;;;;5026485;28;20428;-61
2023/10/02 08:53:26;;;;;;;31.02;12.00;;;18.20;99.90;;;;;;5023629;28;20037;-59
2023/10/02 08:56:01;;;;;;;28.17;10.73;;;18.30;99.90;;;;;;5023247;28;20030;-62
2023/10/02 08:58:27;;;;;;;25.67;10.93;;;18.40;99.90;;;;;;5025201;28;20030;-62
2023/10/02 09:03:42;;;;;;;31.60;11.82;;;18.60;99.90;;;;;;5021908;28;20036;-61
2023/10/02 09:09:17;;;;;;;30.88;12.15;;;18.80;99.90;;;;;;5035978;28;20036;-62
2023/10/02 09:11:45;;;;;;;29.75;11.95;;;19.00;99.90;;;;;;5027093;28;20040;-61
2023/10/02 09:17:22;;;;;;;32.58;12.15;;;19.20;99.90;;;;;;5019578;28;20033;-61
2023/10/02 09:20:03;;;;;;;33.25;11.68;;;19.30;99.90;;;;;;5019183;28;20041;-61
2023/10/02 09:22:37;;;;;;;29.85;11.18;;;19.40;99.90;;;;;;5035066;28;20021;-60
2023/10/02 09:25:12;;;;;;;32.35;13.77;;;19.60;99.90;;;;;;5017766;28;20033;-61
2023/10/02 09:27:56;;;;;;;28.40;10.80;;;19.80;99.90;;;;;;5030903;28;20115;-59
2023/10/02 09:33:05;;;;;;;30.13;11.27;;;20.00;99.90;;;;;;5027490;28;20400;-61
2023/10/02 09:38:06;;;;;;;29.92;11.57;;;20.30;99.90;;;;;;5022154;28;20455;-58
2023/10/02 09:40:56;;;;;;;35.15;12.35;;;20.50;99.90;;;;;;5018735;28;20546;-59
2023/10/02 09:43:31;;;;;;;32.00;12.27;;;20.60;99.90;;;;;;5014299;28;20096;-59
2023/10/02 09:46:15;;;;;;;27.52;11.02;;;20.80;99.90;;;;;;5018503;28;20475;-58
2023/10/02 09:48:46;;;;;;;31.38;12.63;;;21.00;99.90;;;;;;5022648;28;20041;-56
2023/10/02 09:51:38;;;;;;;28.20;12.18;;;21.10;99.90;;;;;;5018325;28;20465;-59
2023/10/02 09:54:19;;;;;;;27.73;11.00;;;21.30;99.90;;;;;;5022300;28;20103;-57
2023/10/02 09:57:13;;;;;;;29.83;11.85;;;21.40;99.90;;;;;;5020543;28;20041;-58
2023/10/02 09:59:46;;;;;;;32.15;12.23;;;21.60;99.90;;;;;;5016322;28;20500;-58
2023/10/02 10:05:02;;;;;;;31.00;11.68;;;21.80;99.90;;;;;;5012846;28;20116;-57
2023/10/02 10:08:33;;;;;;;33.60;11.98;;;21.90;99.90;;;;;;5018505;28;20048;-58
2023/10/02 10:10:57;;;;;;;33.35;12.55;;;22.00;99.90;;;;;;5017721;28;20104;-59
2023/10/02 10:13:32;;;;;;;26.98;10.88;;;22.20;99.90;;;;;;5015206;28;20121;-57
2023/10/02 10:16:19;;;;;;;29.63;11.68;;;22.50;99.90;;;;;;5017666;28;20080;-58
2023/10/02 10:21:58;;;;;;;33.10;12.68;;;22.70;99.90;;;;;;5018852;28;20438;-59
2023/10/02 10:24:56;;;;;;;28.33;11.32;;;22.90;99.90;;;;;;5013997;28;20437;-59
2023/10/02 10:27:43;;;;;;;29.67;11.90;;;22.90;99.90;;;;;;5026226;28;20032;-59
2023/10/02 10:30:24;;;;;;;30.63;12.18;;;23.00;99.90;;;;;;5019712;28;20068;-59
2023/10/02 10:33:13;;;;;;;32.70;12.48;;;23.10;99.90;;;;;;5013961;28;20030;-60
2023/10/02 10:35:48;;;;;;;31.80;12.57;;;23.30;99.90;;;;;;5015077;28;20030;-58
2023/10/02 10:38:34;;;;;;;29.20;12.30;;;23.40;99.90;;;;;;5010972;28;20050;-59
2023/10/02 10:41:01;;;;;;;30.83;12.82;;;23.60;99.90;;;;;;5020780;28;20022;-61
2023/10/02 10:43:43;;;;;;;36.50;12.18;;;23.60;99.90;;;;;;5021624;28;20479;-58
2023/10/02 10:46:29;;;;;;;28.92;11.73;;;23.70;99.90;;;;;;5018295;28;20025;-58
2023/10/02 10:48:59;;;;;;;34.75;11.98;;;23.80;99.90;;;;;;5016041;28;20049;-59
2023/10/02 10:51:28;;;;;;;29.60;12.60;;;23.80;99.90;;;;;;5022500;28;20107;-58
2023/10/02 10:54:13;;;;;;;27.40;12.15;;;24.00;99.90;;;;;;5016515;28;20026;-59
2023/10/02 10:56:56;;;;;;;33.08;12.30;;;24.10;99.90;;;;;;5019057;28;20415;-58
2023/10/02 10:59:32;;;;;;;30.70;13.18;;;24.20;99.90;;;;;;5026190;28;20030;-59
2023/10/02 11:02:13;;;;;;;28.25;12.52;;;24.40;99.90;;;;;;5022834;28;20057;-58
2023/10/02 11:04:47;;;;;;;34.38;12.30;;;24.50;99.90;;;;;;5019748;28;20104;-58
2023/10/02 11:07:19;;;;;;;28.50;12.15;;;24.70;99.90;;;;;;5018294;28;20044;-59
2023/10/02 11:10:12;;;;;;;33.78;12.43;;;24.90;99.90;;;;;;5025214;28;20123;-59
2023/10/02 11:12:38;;;;;;;23.92;10.95;;;25.00;99.90;;;;;;5024877;28;20043;-56
2023/10/02 11:15:15;;;;;;;32.20;12.52;;;25.20;99.90;;;;;;5015395;28;20026;-57
2023/10/02 11:18:18;;;;;;;30.45;12.30;;;25.50;99.90;;;;;;5018776;28;20030;-59
2023/10/02 11:20:47;;;;;;;28.80;12.23;;;25.50;99.90;;;;;;5017034;28;20032;-59
2023/10/02 11:23:22;;;;;;;33.22;13.15;;;25.70;99.90;;;;;;5017379;28;20036;-61
2023/10/02 11:25:53;;;;;;;39.80;13.27;;;25.70;99.90;;;;;;5016276;28;20160;-57
2023/10/02 11:28:32;;;;;;;34.08;13.57;;;25.80;99.90;;;;;;5014002;28;20033;-59
2023/10/02 11:31:29;;;;;;;30.02;13.88;;;25.90;99.90;;;;;;5021281;28;20021;-59
2023/10/02 11:34:01;;;;;;;29.08;12.52;;;26.20;99.90;;;;;;5016507;28;20025;-59
2023/10/02 11:36:29;;;;;;;33.92;13.98;;;26.60;99.90;;;;;;5021994;28;20091;-59
2023/10/02 11:38:55;;;;;;;30.85;12.20;;;26.60;99.90;;;;;;5028868;28;20090;-60
2023/10/02 11:41:21;;;;;;;35.25;13.23;;;26.80;99.90;;;;;;5023788;28;20021;-59
2023/10/02 11:43:48;;;;;;;31.38;13.30;;;27.00;99.90;;;;;;5032231;28;20037;-60
2023/10/02 11:46:14;;;;;;;31.70;13.63;;;27.20;99.90;;;;;;5015478;28;20018;-59
2023/10/02 11:48:40;;;;;;;32.72;13.27;;;27.20;99.90;;;;;;5024822;28;20062;-59
2023/10/02 11:51:06;;;;;;;32.20;12.52;;;27.40;99.90;;;;;;5030091;28;20056;-60
2023/10/02 11:53:32;;;;;;;29.42;11.95;;;27.30;99.90;;;;;;5030072;28;20459;-59
2023/10/02 11:55:57;;;;;;;32.90;13.15;;;27.40;99.90;;;;;;5025667;28;20415;-60
2023/10/02 11:58:24;;;;;;;29.77;13.15;;;27.60;99.90;;;;;;5026240;28;20033;-58
2023/10/02 12:00:49;;;;;;;31.27;13.75;;;27.80;99.90;;;;;;5025431;28;20036;-58
2023/10/02 12:03:18;;;;;;;29.15;12.68;;;27.80;99.90;;;;;;5025793;28;20029;-58
2023/10/02 12:05:43;;;;;;;30.13;12.82;;;27.80;99.90;;;;;;5020454;28;20029;-59
2023/10/02 12:08:09;;;;;;;29.33;12.93;;;28.00;99.90;;;;;;5025332;28;20484;-59
2023/10/02 12:10:39;;;;;;;32.95;14.43;;;27.90;99.90;;;;;;5024943;28;20044;-60
2023/10/02 12:13:06;;;;;;;31.27;13.77;;;27.90;99.90;;;;;;5028293;28;20033;-59
2023/10/02 12:15:31;;;;;;;36.88;14.73;;;27.80;99.90;;;;;;5022142;28;20029;-59
2023/10/02 12:17:57;;;;;;;34.65;14.30;;;27.70;99.90;;;;;;5019390;28;20156;-59
2023/10/02 12:20:22;;;;;;;35.35;13.57;;;27.70;99.90;;;;;;5025868;28;20018;-58
2023/10/02 12:22:48;;;;;;;30.77;13.50;;;27.70;99.90;;;;;;5027310;28;20044;-60
2023/10/02 12:25:14;;;;;;;29.92;13.15;;;27.90;99.90;;;;;;5023881;28;20516;-59
2023/10/02 12:27:40;;;;;;;30.40;12.45;;;28.00;99.90;;;;;;5026798;28;20499;-60
2023/10/02 12:30:11;;;;;;;35.22;14.90;;;27.90;99.90;;;;;;5032903;28;20025;-58
2023/10/02 12:32:37;;;;;;;29.15;13.27;;;28.00;99.90;;;;;;5025745;28;20040;-60
2023/10/02 12:35:05;;;;;;;35.70;14.40;;;28.00;99.90;;;;;;5025925;28;20109;-59
2023/10/02 12:37:31;;;;;;;32.47;13.35;;;28.00;99.90;;;;;;5020831;28;20569;-59
2023/10/02 12:39:57;;;;;;;30.13;13.63;;;28.10;99.90;;;;;;5020389;28;20017;-59
2023/10/02 12:42:23;;;;;;;32.08;14.00;;;28.00;99.90;;;;;;5032405;28;20026;-58
2023/10/02 12:44:48;;;;;;;30.58;12.57;;;28.10;99.90;;;;;;5024456;28;20529;-56
2023/10/02 12:47:15;;;;;;;31.00;13.10;;;27.90;99.90;;;;;;5025800;28;20025;-57
2023/10/02 12:49:41;;;;;;;39.97;13.10;;;28.10;99.90;;;;;;5024433;28;20048;-59
2023/10/02 12:52:06;;;;;;;33.75;13.43;;;28.00;99.90;;;;;;5025706;28;20021;-59
2023/10/02 12:54:32;;;;;;;32.35;13.48;;;28.10;99.90;;;;;;5022272;28;20504;-59
2023/10/02 12:56:58;;;;;;;29.40;13.27;;;28.10;99.90;;;;;;5024091;28;20029;-59
2023/10/02 12:59:24;;;;;;;33.45;13.18;;;28.30;99.90;;;;;;5019833;28;20026;-57
2023/10/02 13:01:50;;;;;;;31.23;14.10;;;28.60;99.90;;;;;;5028782;28;20026;-58
2023/10/02 13:04:16;;;;;;;27.17;13.23;;;28.70;99.90;;;;;;5032559;28;20033;-60
2023/10/02 13:06:45;;;;;;;31.38;13.00;;;28.90;99.90;;;;;;5027290;28;20025;-60
2023/10/02 13:09:14;;;;;;;33.30;13.80;;;28.80;99.90;;;;;;5028183;28;20112;-59
2023/10/02 13:11:40;;;;;;;30.10;13.30;;;29.00;99.90;;;;;;5030498;28;20033;-59
2023/10/02 13:14:11;;;;;;;29.27;13.35;;;28.80;99.90;;;;;;5033404;28;20044;-60
2023/10/02 13:16:37;;;;;;;31.17;13.85;;;29.00;99.90;;;;;;5026502;28;20057;-59
2023/10/02 13:19:09;;;;;;;33.35;12.15;;;29.00;99.90;;;;;;5021973;28;20030;-59
2023/10/02 13:21:35;;;;;;;32.17;12.93;;;29.10;99.90;;;;;;5026411;28;20029;-58
2023/10/02 13:24:01;;;;;;;34.00;13.85;;;28.90;99.90;;;;;;5025352;28;20033;-58
2023/10/02 13:26:27;;;;;;;29.88;13.07;;;28.90;99.90;;;;;;5029479;28;20033;-58
2023/10/02 13:28:54;;;;;;;27.25;12.18;;;28.80;99.90;;;;;;5026206;28;20064;-59
2023/10/02 13:31:20;;;;;;;31.52;12.70;;;28.50;99.90;;;;;;5030570;28;20026;-58
2023/10/02 13:33:52;;;;;;;33.92;12.75;;;28.40;99.90;;;;;;5033458;28;20037;-57
2023/10/02 13:36:22;;;;;;;27.55;13.30;;;28.60;99.90;;;;;;5024701;28;20104;-59
2023/10/02 13:38:58;;;;;;;31.17;12.65;;;28.50;99.90;;;;;;5023933;28;20030;-59